Bookmark and Share
Track history (hours):
 

Capt. Billy Slatten

More information available from US FCC via Universal Licensing System and Coast Guard Vessel Documentation Center.

Last reported at 2014-Apr-21 11:33 UTC. Time now 2014-Apr-21 12:14 UTC.
Position N 30°03' W 090°35'.

Length 30 m; draft 3.5 m.

Type: Tug. MMSI: 367007030.

NotesDate/timePositionNaut miles runAvg speedWind from/ knotsBaromVisibWave heightAir tempDewpointWater temp
2014-Apr-21 11:33N 30°03' W 090°35'0 0.0
2014-Apr-21 10:33N 30°03' W 090°35'1 0.8
2014-Apr-21 09:33N 30°03' W 090°34'0 0.0
2014-Apr-21 08:33N 30°03' W 090°34'0 0.0
2014-Apr-21 07:33N 30°03' W 090°34'0 0.0
2014-Apr-21 06:33N 30°03' W 090°34'0 0.0
2014-Apr-21 05:33N 30°03' W 090°34'0 0.0
2014-Apr-21 04:33N 30°03' W 090°34'0 0.0
2014-Apr-21 03:33N 30°03' W 090°34'2 1.7
2014-Apr-21 02:33N 30°03' W 090°32'1 1.1
2014-Apr-21 01:33N 30°03' W 090°34'18 1.5
2014-Apr-20 13:26N 30°04' W 090°54'0 0.0
2014-Apr-20 06:26N 30°04' W 090°54'0 0.1
2014-Apr-20 03:27N 30°04' W 090°54'  
2014-Apr-16 10:33N 30°01' W 090°46'2 1.8
2014-Apr-16 09:33N 30°01' W 090°44'0 0.0
2014-Apr-16 08:33N 30°01' W 090°44'0 0.0
2014-Apr-16 07:33N 30°01' W 090°44'0 0.0
2014-Apr-16 06:33N 30°01' W 090°44'0 0.0
2014-Apr-16 05:34N 30°01' W 090°44'0 0.0
2014-Apr-16 04:33N 30°01' W 090°44'0 0.0
2014-Apr-16 03:33N 30°01' W 090°44'0 0.0
2014-Apr-16 02:33N 30°01' W 090°44'0 0.0
2014-Apr-16 01:33N 30°01' W 090°44'1 1.1
2014-Apr-16 00:30N 30°02' W 090°42'  
2014-Apr-11 17:22N 30°02' W 090°36'3 3.5
2014-Apr-11 16:33N 30°03' W 090°33'6 1.4
2014-Apr-11 12:25N 30°03' W 090°40'0 0.6
2014-Apr-11 11:33N 30°03' W 090°39'  

Dump ship's entire track history

sailing weather and tide predictions

Capt. Billy Slatten — WDC3380 — position and weather